Songer, Illinois
Current Conditions -  °F | °C
As of 6:15 AM on Monday 26 Jan 2015 (Local Time) from KFOA Reporting Station
Overcast Overcast  
Wind Chill: 20°   Ceiling: 1400
Heat Index: 28°   Visibility: 10mi
Dew Point: 25°   Wind: 9mph
Humidity: 86%   Direction: 310°NW
Pressure: 29.99"   Gusts: NA
Location:  38.6949°N, 88.6407°W
Report Text: KFOA 261215Z AUTO 31008KT 10SM OVC014 M02/M04 A2999 RMK AO2 T10201040
Loading
Personal Weather Stations






























Interactive Weather Map New forecast layout! Learn more

10-Day Weather Forecast

Advertisements
Track Severe Weather on mobile